createdAt,value
2023-02-23T00:01:55.908Z,50.18
2023-02-23T00:04:24.253Z,50.41
2023-02-23T00:06:52.460Z,50.66
2023-02-23T00:09:25.315Z,50.68
2023-02-23T00:11:54.674Z,50.10
2023-02-23T00:14:27.439Z,49.99
2023-02-23T00:16:55.957Z,50.97
2023-02-23T00:19:25.057Z,50.61
2023-02-23T00:21:53.732Z,50.00
2023-02-23T00:24:21.272Z,50.93
2023-02-23T00:26:51.390Z,50.27
2023-02-23T00:29:23.607Z,49.55
2023-02-23T00:31:52.462Z,50.69
2023-02-23T00:34:21.371Z,50.34
2023-02-23T00:36:56.807Z,49.34
2023-02-23T00:39:29.452Z,48.90
2023-02-23T00:42:03.020Z,49.57
2023-02-23T00:44:30.441Z,49.56
2023-02-23T00:46:57.562Z,50.25
2023-02-23T00:49:24.755Z,49.30
2023-02-23T00:51:55.124Z,49.81
2023-02-23T00:54:22.254Z,49.98
2023-02-23T00:56:50.120Z,49.73
2023-02-23T00:59:17.466Z,49.79
2023-02-23T01:01:45.211Z,50.99
2023-02-23T01:04:13.441Z,50.18
2023-02-23T01:06:41.826Z,50.86
2023-02-23T01:09:11.870Z,49.10
2023-02-23T01:11:39.068Z,49.79
2023-02-23T01:14:06.271Z,49.98
2023-02-23T01:16:35.489Z,49.43
2023-02-23T01:19:04.624Z,49.51
2023-02-23T01:21:34.500Z,49.70
2023-02-23T01:24:02.461Z,50.04
2023-02-23T01:26:35.226Z,50.39
2023-02-23T01:29:14.780Z,49.76
2023-02-23T01:31:46.824Z,50.21
2023-02-23T01:34:19.249Z,50.11
2023-02-23T01:36:46.363Z,50.46
2023-02-23T01:39:20.115Z,49.97
2023-02-23T01:41:47.410Z,49.96
2023-02-23T01:44:15.296Z,49.86
2023-02-23T01:46:45.537Z,49.75
2023-02-23T01:49:20.285Z,49.89
2023-02-23T01:51:52.819Z,49.27
2023-02-23T01:54:24.492Z,49.15
2023-02-23T01:56:58.538Z,49.23
2023-02-23T01:59:55.022Z,49.23
2023-02-23T02:02:33.653Z,49.71
2023-02-23T02:05:05.391Z,50.25
2023-02-23T02:07:35.440Z,49.01
2023-02-23T02:10:11.990Z,49.51
2023-02-23T02:12:44.348Z,50.13
2023-02-23T02:15:17.634Z,49.73
2023-02-23T02:18:09.622Z,49.23
2023-02-23T02:21:12.529Z,49.50
2023-02-23T02:23:40.226Z,49.41
2023-02-23T02:26:31.806Z,48.58
2023-02-23T02:29:01.884Z,48.86
2023-02-23T02:31:55.193Z,49.63
2023-02-23T02:34:22.695Z,48.68
2023-02-23T02:37:14.556Z,48.78
2023-02-23T02:39:48.024Z,49.16
2023-02-23T02:42:15.343Z,49.12
2023-02-23T02:44:59.278Z,49.47
2023-02-23T02:47:34.574Z,49.65
2023-02-23T02:50:12.579Z,49.23
2023-02-23T02:53:04.199Z,49.78
2023-02-23T02:55:34.899Z,49.43
2023-02-23T02:58:07.896Z,48.93
2023-02-23T03:00:56.144Z,49.57
2023-02-23T03:03:53.352Z,49.33
2023-02-23T03:06:43.827Z,49.22
2023-02-23T03:09:32.552Z,49.40
2023-02-23T03:12:44.754Z,50.03
2023-02-23T03:15:48.022Z,50.11
2023-02-23T03:18:58.443Z,49.73
2023-02-23T03:21:52.674Z,50.23
2023-02-23T03:25:06.675Z,50.28
2023-02-23T03:28:05.942Z,49.59
2023-02-23T03:31:06.783Z,49.52
2023-02-23T03:34:14.475Z,50.59
2023-02-23T03:37:11.766Z,50.31
2023-02-23T03:40:10.679Z,49.19
2023-02-23T03:42:59.450Z,49.61
2023-02-23T03:45:46.446Z,49.99
2023-02-23T03:48:35.626Z,50.04
2023-02-23T03:51:26.040Z,49.91
2023-02-23T03:54:39.058Z,49.66
2023-02-23T03:57:28.591Z,49.44
2023-02-23T04:00:20.392Z,51.16
2023-02-23T04:03:10.828Z,49.80
2023-02-23T04:06:00.376Z,50.22
2023-02-23T04:08:52.971Z,49.83
2023-02-23T04:11:52.192Z,49.57
2023-02-23T04:14:29.458Z,49.68
2023-02-23T04:16:58.396Z,50.06
2023-02-23T04:19:29.550Z,50.11
2023-02-23T04:21:56.688Z,49.65
2023-02-23T04:24:23.806Z,49.65
2023-02-23T04:26:50.848Z,49.50
2023-02-23T04:29:17.888Z,49.59
2023-02-23T04:31:45.050Z,49.93
2023-02-23T04:34:12.105Z,49.45
2023-02-23T04:36:39.100Z,49.84
2023-02-23T04:39:06.075Z,50.60
2023-02-23T04:41:33.197Z,49.62
2023-02-23T04:44:00.249Z,49.99
2023-02-23T04:46:27.232Z,49.96
2023-02-23T04:48:54.166Z,50.04
2023-02-23T04:51:21.242Z,50.34
2023-02-23T04:53:48.465Z,49.38
2023-02-23T04:56:15.525Z,49.58
2023-02-23T04:58:42.721Z,49.52
2023-02-23T05:01:10.160Z,50.04
2023-02-23T05:03:37.176Z,50.05
2023-02-23T05:06:04.448Z,50.16
2023-02-23T05:08:31.512Z,49.15
2023-02-23T05:10:58.567Z,49.18
2023-02-23T05:13:25.655Z,49.22
2023-02-23T05:15:57.747Z,48.97
2023-02-23T05:18:26.489Z,48.90
2023-02-23T05:20:54.266Z,49.58
2023-02-23T05:23:21.977Z,48.84
2023-02-23T05:25:49.014Z,48.91
2023-02-23T05:28:16.063Z,49.51
2023-02-23T05:30:43.771Z,49.32
2023-02-23T05:33:10.969Z,48.25
2023-02-23T05:35:41.470Z,48.29
2023-02-23T05:38:08.498Z,48.34
2023-02-23T05:40:36.788Z,48.24
2023-02-23T05:43:03.799Z,48.13
2023-02-23T05:45:31.080Z,47.49
2023-02-23T05:47:58.204Z,47.41
2023-02-23T05:50:26.034Z,47.10
2023-02-23T05:52:54.005Z,46.73
2023-02-23T05:55:20.960Z,45.84
2023-02-23T05:57:48.017Z,46.41
2023-02-23T06:00:15.304Z,45.46
2023-02-23T06:02:42.464Z,45.46
2023-02-23T06:05:10.851Z,44.93
2023-02-23T06:07:38.089Z,44.72
2023-02-23T06:10:05.969Z,44.44
2023-02-23T06:12:33.054Z,43.31
2023-02-23T06:15:00.066Z,44.77
2023-02-23T06:17:27.155Z,44.36
2023-02-23T06:19:54.447Z,44.39
2023-02-23T06:22:21.506Z,43.89
2023-02-23T06:24:49.800Z,44.32
2023-02-23T06:27:16.804Z,43.64
2023-02-23T06:29:43.937Z,42.88
2023-02-23T06:32:10.999Z,42.55
2023-02-23T06:34:45.339Z,42.02
2023-02-23T06:37:12.533Z,40.92
2023-02-23T06:39:39.605Z,41.84
2023-02-23T06:42:06.657Z,39.79
2023-02-23T06:44:35.611Z,39.00
2023-02-23T06:47:05.901Z,39.17
2023-02-23T06:49:33.354Z,38.87
2023-02-23T06:52:00.596Z,38.29
2023-02-23T06:54:27.558Z,38.80
2023-02-23T06:56:55.846Z,38.51
2023-02-23T06:59:24.408Z,36.96
2023-02-23T07:01:51.814Z,37.71
2023-02-23T07:04:18.934Z,37.54
2023-02-23T07:06:45.904Z,36.88
2023-02-23T07:09:13.026Z,36.83
2023-02-23T07:11:41.808Z,36.14
2023-02-23T07:14:15.307Z,35.01
2023-02-23T07:16:45.361Z,34.75
2023-02-23T07:19:12.437Z,34.53
2023-02-23T07:21:39.429Z,35.18
2023-02-23T07:24:06.757Z,35.11
2023-02-23T07:26:33.863Z,34.86
2023-02-23T07:29:01.915Z,35.31
2023-02-23T07:31:29.454Z,35.42
2023-02-23T07:33:56.742Z,35.21
2023-02-23T07:36:24.765Z,35.70
2023-02-23T07:38:51.877Z,35.63
2023-02-23T07:41:19.333Z,34.82
2023-02-23T07:43:46.697Z,34.83
2023-02-23T07:46:15.611Z,34.85
2023-02-23T07:48:45.070Z,33.56
2023-02-23T07:51:15.974Z,33.08
2023-02-23T07:53:44.410Z,32.63
2023-02-23T07:56:12.545Z,32.05
2023-02-23T07:58:41.824Z,30.43
2023-02-23T08:01:10.180Z,30.04
2023-02-23T08:03:37.323Z,29.00
2023-02-23T08:06:04.616Z,27.60
2023-02-23T08:08:31.796Z,26.56
2023-02-23T08:11:03.572Z,26.61
2023-02-23T08:13:31.548Z,26.28
2023-02-23T08:15:59.614Z,24.77
2023-02-23T08:18:27.841Z,24.82
2023-02-23T08:21:02.189Z,23.98
2023-02-23T08:23:30.686Z,23.99
2023-02-23T08:25:59.765Z,23.13
2023-02-23T08:28:27.960Z,22.70
2023-02-23T08:30:55.361Z,22.90
2023-02-23T08:33:22.595Z,22.24
2023-02-23T08:35:49.626Z,21.67
2023-02-23T08:38:18.418Z,21.44
2023-02-23T08:40:45.627Z,20.63
2023-02-23T08:43:12.698Z,20.64
2023-02-23T08:45:39.769Z,20.08
2023-02-23T08:48:08.999Z,21.09
2023-02-23T08:50:36.149Z,20.80
2023-02-23T08:53:04.300Z,20.74
2023-02-23T08:55:32.701Z,20.07
2023-02-23T08:57:59.771Z,20.06
2023-02-23T09:00:26.949Z,19.04
2023-02-23T09:02:53.966Z,18.30
2023-02-23T09:05:21.150Z,17.24
2023-02-23T09:07:49.454Z,16.63
2023-02-23T09:10:20.217Z,16.44
2023-02-23T09:12:47.358Z,15.48
2023-02-23T09:15:14.396Z,15.75
2023-02-23T09:17:45.094Z,15.40
2023-02-23T09:20:15.905Z,15.34
2023-02-23T09:22:48.746Z,15.60
2023-02-23T09:25:22.916Z,14.92
2023-02-23T09:27:56.505Z,15.15
2023-02-23T09:30:23.791Z,14.96
2023-02-23T09:32:51.416Z,14.86
2023-02-23T09:35:21.116Z,14.88
2023-02-23T09:37:50.392Z,14.28
2023-02-23T09:40:22.316Z,14.19
2023-02-23T09:43:17.014Z,14.26
2023-02-23T09:45:55.218Z,14.72
2023-02-23T09:48:28.813Z,14.70
2023-02-23T09:51:01.414Z,14.79
2023-02-23T09:53:35.794Z,14.36
2023-02-23T09:56:11.897Z,14.36
2023-02-23T09:58:40.309Z,14.39
2023-02-23T10:01:19.838Z,14.36
2023-02-23T10:03:55.994Z,15.03
2023-02-23T10:06:23.419Z,14.55
2023-02-23T10:09:22.653Z,14.24
2023-02-23T10:12:00.359Z,14.80
2023-02-23T10:14:53.796Z,15.17
2023-02-23T10:17:36.429Z,15.66
2023-02-23T10:20:28.290Z,16.33
2023-02-23T10:23:01.689Z,15.75
2023-02-23T10:25:33.068Z,16.21
2023-02-23T10:28:01.715Z,15.62
2023-02-23T10:30:33.081Z,16.22
2023-02-23T10:33:11.626Z,16.25
2023-02-23T10:35:39.592Z,15.79
2023-02-23T10:38:08.671Z,16.44
2023-02-23T10:40:36.553Z,16.35
2023-02-23T10:43:03.821Z,16.07
2023-02-23T10:45:38.340Z,16.33
2023-02-23T10:48:09.231Z,16.48
2023-02-23T10:50:38.884Z,16.74
2023-02-23T10:53:28.125Z,16.91
2023-02-23T10:56:17.102Z,17.06
2023-02-23T10:58:56.436Z,17.55
2023-02-23T11:02:01.507Z,17.65
2023-02-23T11:04:35.255Z,18.07
2023-02-23T11:07:12.029Z,18.45
2023-02-23T11:09:47.031Z,18.52
2023-02-23T11:12:22.911Z,18.71
2023-02-23T11:14:51.832Z,19.07
2023-02-23T11:17:37.873Z,20.25
2023-02-23T11:20:23.197Z,20.05
2023-02-23T11:22:52.411Z,20.94
2023-02-23T11:25:29.710Z,21.71
2023-02-23T11:27:58.035Z,22.63
2023-02-23T11:30:39.878Z,21.88
2023-02-23T11:33:10.964Z,23.04
2023-02-23T11:35:39.058Z,24.15
2023-02-23T11:38:24.449Z,24.82
2023-02-23T11:41:07.437Z,24.69
2023-02-23T11:43:36.230Z,25.41
2023-02-23T11:46:04.218Z,26.74
2023-02-23T11:48:51.910Z,26.63
2023-02-23T11:51:35.196Z,27.95
2023-02-23T11:54:05.758Z,28.47
2023-02-23T11:56:35.625Z,29.22
2023-02-23T11:59:18.498Z,29.79
2023-02-23T12:01:50.144Z,30.70
2023-02-23T12:04:30.571Z,32.21
2023-02-23T12:07:32.105Z,32.18
2023-02-23T12:10:25.647Z,32.89
2023-02-23T12:13:08.163Z,33.04
2023-02-23T12:15:50.873Z,33.80
2023-02-23T12:18:17.957Z,34.41
2023-02-23T12:20:50.073Z,34.86
2023-02-23T12:23:24.848Z,35.25
2023-02-23T12:25:59.932Z,35.16
2023-02-23T12:28:38.472Z,35.24
2023-02-23T12:31:23.667Z,35.19
2023-02-23T12:34:04.263Z,35.56
2023-02-23T12:36:47.994Z,35.59
2023-02-23T12:39:57.892Z,35.27
2023-02-23T12:42:49.153Z,36.20
2023-02-23T12:45:34.106Z,35.21
2023-02-23T12:48:13.301Z,35.43
2023-02-23T12:50:53.111Z,35.74
2023-02-23T12:53:39.872Z,36.12
2023-02-23T12:56:37.849Z,35.93
2023-02-23T12:59:35.812Z,36.69
2023-02-23T13:02:44.036Z,36.79
2023-02-23T13:05:32.423Z,36.26
2023-02-23T13:08:24.720Z,36.74
2023-02-23T13:10:51.812Z,36.69
2023-02-23T13:13:24.644Z,37.50
2023-02-23T13:16:40.731Z,36.33
2023-02-23T13:19:20.943Z,37.17
2023-02-23T13:22:06.720Z,36.91
2023-02-23T13:24:47.469Z,37.64
2023-02-23T13:27:27.446Z,37.33
2023-02-23T13:29:56.877Z,37.41
2023-02-23T13:32:29.467Z,37.12
2023-02-23T13:35:05.633Z,37.37
2023-02-23T13:37:51.066Z,37.28
2023-02-23T13:40:25.280Z,37.71
2023-02-23T13:43:17.776Z,37.71
2023-02-23T13:46:04.667Z,38.36
2023-02-23T13:48:56.805Z,38.58
2023-02-23T13:51:47.539Z,38.26
2023-02-23T13:54:15.163Z,38.93
2023-02-23T13:56:59.268Z,39.30
2023-02-23T13:59:34.451Z,39.03
2023-02-23T14:02:07.355Z,39.60
2023-02-23T14:04:42.557Z,39.09
2023-02-23T14:07:09.708Z,39.39
2023-02-23T14:09:56.899Z,39.86
2023-02-23T14:12:25.460Z,39.58
2023-02-23T14:14:52.477Z,39.96
2023-02-23T14:17:19.476Z,40.88
2023-02-23T14:20:13.298Z,39.70
2023-02-23T14:23:19.693Z,40.01
2023-02-23T14:25:51.520Z,40.33
2023-02-23T14:28:36.593Z,40.38
2023-02-23T14:31:12.331Z,40.07
2023-02-23T14:33:42.627Z,40.84
2023-02-23T14:36:22.025Z,41.25
2023-02-23T14:39:15.803Z,42.16
2023-02-23T14:41:57.953Z,42.10
2023-02-23T14:44:36.639Z,42.85
2023-02-23T14:47:08.470Z,42.61
2023-02-23T14:49:40.780Z,43.24
2023-02-23T14:52:21.512Z,43.51
2023-02-23T14:54:52.168Z,43.00
2023-02-23T14:57:26.325Z,43.34
2023-02-23T15:00:06.555Z,43.49
2023-02-23T15:02:35.506Z,43.49
2023-02-23T15:05:16.528Z,43.62
2023-02-23T15:07:45.533Z,43.86
2023-02-23T15:10:22.675Z,44.47
2023-02-23T15:12:50.682Z,44.14
2023-02-23T15:15:24.439Z,44.26
2023-02-23T15:17:55.387Z,43.92
2023-02-23T15:20:28.965Z,43.83
2023-02-23T15:22:59.374Z,44.04
2023-02-23T15:25:36.027Z,44.50
2023-02-23T15:28:26.654Z,44.06
2023-02-23T15:31:01.094Z,44.46
2023-02-23T15:33:31.101Z,44.93
2023-02-23T15:36:19.846Z,44.34
2023-02-23T15:38:50.747Z,44.96
2023-02-23T15:41:36.730Z,44.84
2023-02-23T15:44:27.503Z,44.50
2023-02-23T15:47:03.062Z,45.08
2023-02-23T15:49:35.932Z,44.03
2023-02-23T15:52:07.176Z,44.61
2023-02-23T15:55:00.505Z,44.70
2023-02-23T15:57:31.690Z,44.68
2023-02-23T16:00:02.088Z,44.44
2023-02-23T16:02:31.040Z,44.72
2023-02-23T16:05:08.918Z,44.58
2023-02-23T16:07:40.714Z,44.72
2023-02-23T16:10:23.150Z,44.06
2023-02-23T16:12:54.248Z,44.26
2023-02-23T16:15:30.344Z,44.81
2023-02-23T16:18:03.782Z,44.81
2023-02-23T16:20:46.387Z,44.51
2023-02-23T16:23:44.765Z,44.35
2023-02-23T16:26:27.467Z,45.04
2023-02-23T16:28:57.981Z,44.77
2023-02-23T16:31:43.388Z,45.28
2023-02-23T16:34:27.191Z,45.53
2023-02-23T16:37:03.789Z,45.06
2023-02-23T16:39:34.372Z,44.96
2023-02-23T16:42:01.431Z,45.61
2023-02-23T16:44:41.396Z,45.03
2023-02-23T16:47:20.577Z,45.46
2023-02-23T16:49:48.158Z,45.42
2023-02-23T16:52:22.538Z,44.77
2023-02-23T16:54:55.346Z,45.24
2023-02-23T16:57:29.784Z,44.76
2023-02-23T16:59:57.689Z,44.44
2023-02-23T17:02:24.857Z,44.16
2023-02-23T17:04:52.909Z,44.76
2023-02-23T17:07:22.881Z,45.74
2023-02-23T17:09:51.004Z,44.75
2023-02-23T17:12:20.133Z,45.49
2023-02-23T17:14:50.674Z,45.21
2023-02-23T17:17:19.464Z,45.50
2023-02-23T17:19:46.886Z,45.31
2023-02-23T17:22:14.711Z,45.71
2023-02-23T17:24:42.773Z,45.48
2023-02-23T17:27:10.362Z,45.68
2023-02-23T17:29:40.760Z,45.31
2023-02-23T17:32:11.460Z,45.84
2023-02-23T17:34:39.446Z,45.97
2023-02-23T17:37:08.080Z,46.49
2023-02-23T17:39:37.540Z,46.25
2023-02-23T17:42:04.881Z,46.00
2023-02-23T17:44:31.882Z,46.52
2023-02-23T17:46:58.967Z,45.77
2023-02-23T17:49:26.141Z,46.42
2023-02-23T17:51:53.331Z,46.43
2023-02-23T17:54:20.392Z,46.22
2023-02-23T17:56:47.476Z,45.92
2023-02-23T17:59:14.704Z,45.82
2023-02-23T18:01:41.704Z,46.89
2023-02-23T18:04:08.819Z,46.56
2023-02-23T18:06:35.838Z,46.22
2023-02-23T18:09:06.120Z,46.35
2023-02-23T18:11:34.864Z,46.20
2023-02-23T18:14:04.557Z,46.36
2023-02-23T18:16:33.490Z,45.67
2023-02-23T18:19:00.774Z,45.97
2023-02-23T18:21:31.111Z,46.00
2023-02-23T18:23:58.518Z,45.74
2023-02-23T18:26:25.849Z,45.95
2023-02-23T18:28:54.405Z,46.03
2023-02-23T18:31:25.542Z,45.92
2023-02-23T18:33:53.360Z,45.74
2023-02-23T18:36:23.392Z,45.65
2023-02-23T18:38:53.397Z,45.50
2023-02-23T18:41:21.410Z,45.91
2023-02-23T18:43:49.644Z,45.82
2023-02-23T18:46:17.423Z,45.61
2023-02-23T18:48:45.260Z,45.28
2023-02-23T18:51:17.652Z,45.32
2023-02-23T18:53:45.945Z,45.40
2023-02-23T18:56:16.304Z,45.41
2023-02-23T18:58:45.735Z,45.24
2023-02-23T19:01:18.277Z,45.46
2023-02-23T19:03:46.840Z,45.57
2023-02-23T19:06:16.574Z,45.28
2023-02-23T19:08:44.874Z,45.55
2023-02-23T19:11:12.302Z,45.58
2023-02-23T19:13:39.735Z,45.32
2023-02-23T19:16:08.357Z,45.50
2023-02-23T19:18:36.426Z,46.01
2023-02-23T19:21:04.591Z,45.69
2023-02-23T19:23:31.844Z,45.66
2023-02-23T19:26:02.497Z,45.25
2023-02-23T19:28:30.331Z,45.54
2023-02-23T19:31:09.016Z,45.68
2023-02-23T19:33:39.899Z,45.11
2023-02-23T19:36:09.175Z,44.94
2023-02-23T19:38:36.887Z,45.30
2023-02-23T19:41:11.356Z,45.00
2023-02-23T19:43:39.151Z,45.49
2023-02-23T19:46:08.752Z,45.18
2023-02-23T19:48:36.821Z,45.45
2023-02-23T19:51:04.546Z,45.40
2023-02-23T19:53:32.355Z,45.52
2023-02-23T19:56:01.081Z,45.27
2023-02-23T19:58:28.280Z,44.92
2023-02-23T20:00:57.601Z,45.09
2023-02-23T20:03:28.643Z,44.98
2023-02-23T20:05:56.646Z,44.94
2023-02-23T20:08:24.536Z,44.73
2023-02-23T20:10:52.250Z,45.19
2023-02-23T20:13:21.507Z,45.17
2023-02-23T20:15:48.558Z,44.37
2023-02-23T20:18:15.629Z,44.06
2023-02-23T20:20:42.870Z,44.10
2023-02-23T20:23:09.960Z,44.10
2023-02-23T20:25:37.022Z,44.42
2023-02-23T20:28:04.732Z,44.24
2023-02-23T20:30:31.867Z,44.93
2023-02-23T20:32:59.031Z,44.22
2023-02-23T20:35:26.426Z,45.19
2023-02-23T20:37:53.770Z,44.55
2023-02-23T20:40:23.260Z,44.51
2023-02-23T20:42:51.729Z,44.18
2023-02-23T20:45:21.684Z,44.58
2023-02-23T20:47:53.215Z,45.04
2023-02-23T20:50:22.425Z,44.49
2023-02-23T20:52:49.854Z,44.76
2023-02-23T20:55:18.906Z,44.32
2023-02-23T20:57:48.177Z,44.55
2023-02-23T21:00:23.344Z,44.63
2023-02-23T21:02:55.861Z,44.35
2023-02-23T21:05:25.090Z,44.47
2023-02-23T21:07:52.687Z,44.99
2023-02-23T21:10:20.621Z,44.62
2023-02-23T21:12:47.685Z,44.69
2023-02-23T21:15:15.191Z,44.76
2023-02-23T21:17:42.301Z,44.88
2023-02-23T21:20:12.566Z,45.50
2023-02-23T21:22:39.743Z,44.95
2023-02-23T21:25:10.555Z,44.77
2023-02-23T21:27:38.604Z,44.10
2023-02-23T21:30:06.387Z,44.22
2023-02-23T21:32:41.156Z,44.66
2023-02-23T21:35:10.641Z,43.81
2023-02-23T21:37:39.131Z,44.77
2023-02-23T21:40:09.702Z,44.50
2023-02-23T21:42:37.842Z,44.43
2023-02-23T21:45:05.304Z,44.39
2023-02-23T21:47:35.574Z,44.99
2023-02-23T21:50:03.351Z,44.92
2023-02-23T21:52:33.931Z,44.12
2023-02-23T21:55:03.887Z,43.99
2023-02-23T21:57:33.429Z,44.02
2023-02-23T22:00:00.669Z,43.94
2023-02-23T22:02:30.684Z,44.13
2023-02-23T22:04:58.272Z,43.26
2023-02-23T22:07:29.292Z,44.88
2023-02-23T22:09:56.409Z,44.22
2023-02-23T22:12:23.419Z,43.73
2023-02-23T22:14:50.461Z,44.00
2023-02-23T22:17:19.356Z,44.87
2023-02-23T22:19:49.724Z,44.04
2023-02-23T22:22:20.165Z,43.31
2023-02-23T22:24:50.464Z,44.43
2023-02-23T22:27:17.478Z,43.78
2023-02-23T22:29:44.454Z,43.35
2023-02-23T22:32:11.686Z,44.34
2023-02-23T22:34:39.069Z,43.65
2023-02-23T22:37:06.072Z,43.13
2023-02-23T22:39:33.423Z,44.02
2023-02-23T22:42:09.332Z,44.05
2023-02-23T22:44:39.086Z,43.60
2023-02-23T22:47:07.497Z,43.60
2023-02-23T22:49:34.782Z,43.41
2023-02-23T22:52:01.829Z,43.56
2023-02-23T22:54:29.198Z,43.47
2023-02-23T22:56:56.170Z,43.67
2023-02-23T22:59:23.228Z,43.08
2023-02-23T23:01:50.657Z,43.89
2023-02-23T23:04:19.654Z,43.99
2023-02-23T23:06:46.717Z,43.80
2023-02-23T23:09:15.038Z,43.82
2023-02-23T23:11:42.843Z,43.51
2023-02-23T23:14:14.064Z,44.53
2023-02-23T23:16:52.118Z,43.07
2023-02-23T23:19:24.492Z,42.73
2023-02-23T23:21:55.455Z,43.39
2023-02-23T23:24:24.503Z,43.61
2023-02-23T23:26:59.549Z,43.09
2023-02-23T23:29:30.034Z,43.97
2023-02-23T23:31:57.469Z,43.04
2023-02-23T23:34:25.430Z,43.40
2023-02-23T23:36:55.626Z,42.47
2023-02-23T23:39:26.088Z,43.06
2023-02-23T23:41:54.125Z,42.86
2023-02-23T23:44:23.928Z,43.43
2023-02-23T23:46:51.194Z,42.15
2023-02-23T23:49:21.256Z,42.25
2023-02-23T23:51:50.917Z,41.61
2023-02-23T23:54:24.395Z,41.19
2023-02-23T23:56:51.521Z,41.59
2023-02-23T23:59:21.549Z,41.11
